EFVA

Vaasa Airport

Vaasa, Finland
METAR EFVA 220020Z AUTO 00000KT CAVOK M22/M24 Q1030
Observed Flight Rules
Feb-22 @ 00:20 UTC (4 hours ago) Visual Flight Rules
Wind Visibility Clouds
Calm 10,000+ meters
  • Clear skies
Temperatures Readings
Current -22°C / -8°F
Dewpoint -24°C / -11°F
Humidity 84%
Altimeter 30.41" Hg
Pressure 1030 hPa
Elevation 4
METAR EFVA 220020Z AUTO 00000KT CAVOK M22/M24 Q1030
Observed Flight Rules
Feb-22 @ 00:20 UTC
(4 hours ago)
VFR
Wind Visibility
Calm 10,000+ meters
Clouds
  • Clear skies
Temperature Dewpoint
-22°C / -8°F -24°C / -11°F
Humidity Altimeter Pressure
84% 30.41" Hg 1030 hPa